sensor_id;sensor_type;location;lat;lon;timestamp;temperature;humidity
43043;DHT22;28667;50.758;6.096;2023-12-22T00:00:29;7.00;99.90
43043;DHT22;28667;50.758;6.096;2023-12-22T00:02:55;7.10;99.90
43043;DHT22;28667;50.758;6.096;2023-12-22T00:05:21;7.10;99.90
43043;DHT22;28667;50.758;6.096;2023-12-22T00:07:46;7.20;99.90
43043;DHT22;28667;50.758;6.096;2023-12-22T00:10:12;7.20;99.90
43043;DHT22;28667;50.758;6.096;2023-12-22T00:12:38;7.20;99.90
43043;DHT22;28667;50.758;6.096;2023-12-22T00:15:04;7.10;99.90
43043;DHT22;28667;50.758;6.096;2023-12-22T00:17:30;7.00;99.90
43043;DHT22;28667;50.758;6.096;2023-12-22T00:19:56;7.00;99.90
43043;DHT22;28667;50.758;6.096;2023-12-22T00:22:24;7.10;99.90
43043;DHT22;28667;50.758;6.096;2023-12-22T00:24:53;7.20;99.90
43043;DHT22;28667;50.758;6.096;2023-12-22T00:27:19;7.30;99.90
43043;DHT22;28667;50.758;6.096;2023-12-22T00:29:44;7.30;99.90
43043;DHT22;28667;50.758;6.096;2023-12-22T00:32:10;7.20;99.90
43043;DHT22;28667;50.758;6.096;2023-12-22T00:34:36;7.10;99.90
43043;DHT22;28667;50.758;6.096;2023-12-22T00:37:02;7.00;99.90
43043;DHT22;28667;50.758;6.096;2023-12-22T00:39:30;6.80;99.90
43043;DHT22;28667;50.758;6.096;2023-12-22T00:41:57;6.70;99.90
43043;DHT22;28667;50.758;6.096;2023-12-22T00:44:22;6.60;99.90
43043;DHT22;28667;50.758;6.096;2023-12-22T00:46:49;6.50;99.90
43043;DHT22;28667;50.758;6.096;2023-12-22T00:49:14;6.50;99.90
43043;DHT22;28667;50.758;6.096;2023-12-22T00:51:40;6.40;99.90
43043;DHT22;28667;50.758;6.096;2023-12-22T00:54:06;6.40;99.90
43043;DHT22;28667;50.758;6.096;2023-12-22T00:56:31;6.40;99.90
43043;DHT22;28667;50.758;6.096;2023-12-22T00:58:57;6.40;99.90
43043;DHT22;28667;50.758;6.096;2023-12-22T01:01:23;6.30;99.90
43043;DHT22;28667;50.758;6.096;2023-12-22T01:03:48;6.20;99.90
43043;DHT22;28667;50.758;6.096;2023-12-22T01:06:14;6.10;99.90
43043;DHT22;28667;50.758;6.096;2023-12-22T01:08:40;6.10;99.90
43043;DHT22;28667;50.758;6.096;2023-12-22T01:11:06;5.90;99.90
43043;DHT22;28667;50.758;6.096;2023-12-22T01:13:31;5.80;99.90
43043;DHT22;28667;50.758;6.096;2023-12-22T01:15:57;5.70;99.90
43043;DHT22;28667;50.758;6.096;2023-12-22T01:18:23;5.70;99.90
43043;DHT22;28667;50.758;6.096;2023-12-22T01:20:50;5.70;99.90
43043;DHT22;28667;50.758;6.096;2023-12-22T01:23:16;5.60;99.90
43043;DHT22;28667;50.758;6.096;2023-12-22T01:25:41;5.60;99.90
43043;DHT22;28667;50.758;6.096;2023-12-22T01:28:07;5.60;99.90
43043;DHT22;28667;50.758;6.096;2023-12-22T01:30:33;5.60;99.90
43043;DHT22;28667;50.758;6.096;2023-12-22T01:32:58;5.60;99.90
43043;DHT22;28667;50.758;6.096;2023-12-22T01:35:24;5.70;99.90
43043;DHT22;28667;50.758;6.096;2023-12-22T01:37:50;5.50;99.90
43043;DHT22;28667;50.758;6.096;2023-12-22T01:40:16;5.00;99.90
43043;DHT22;28667;50.758;6.096;2023-12-22T01:42:42;4.70;99.90
43043;DHT22;28667;50.758;6.096;2023-12-22T01:45:08;4.60;99.90
43043;DHT22;28667;50.758;6.096;2023-12-22T01:47:35;4.50;99.90
43043;DHT22;28667;50.758;6.096;2023-12-22T01:50:01;4.50;99.90
43043;DHT22;28667;50.758;6.096;2023-12-22T01:52:27;4.50;99.90
43043;DHT22;28667;50.758;6.096;2023-12-22T01:54:53;4.60;99.90
43043;DHT22;28667;50.758;6.096;2023-12-22T01:57:20;4.60;99.90
43043;DHT22;28667;50.758;6.096;2023-12-22T01:59:48;4.70;99.90
43043;DHT22;28667;50.758;6.096;2023-12-22T02:02:14;4.80;99.90
43043;DHT22;28667;50.758;6.096;2023-12-22T02:04:40;4.90;99.90
43043;DHT22;28667;50.758;6.096;2023-12-22T02:07:06;4.90;99.90
43043;DHT22;28667;50.758;6.096;2023-12-22T02:09:34;5.00;99.90
43043;DHT22;28667;50.758;6.096;2023-12-22T02:12:01;5.00;99.90
43043;DHT22;28667;50.758;6.096;2023-12-22T02:14:27;5.10;99.90
43043;DHT22;28667;50.758;6.096;2023-12-22T02:19:46;5.20;99.90
43043;DHT22;28667;50.758;6.096;2023-12-22T02:22:12;5.30;99.90
43043;DHT22;28667;50.758;6.096;2023-12-22T02:24:39;5.30;99.90
43043;DHT22;28667;50.758;6.096;2023-12-22T02:27:11;5.30;99.90
43043;DHT22;28667;50.758;6.096;2023-12-22T02:29:43;5.30;99.90
43043;DHT22;28667;50.758;6.096;2023-12-22T02:32:21;5.30;99.90
43043;DHT22;28667;50.758;6.096;2023-12-22T02:34:51;5.20;99.90
43043;DHT22;28667;50.758;6.096;2023-12-22T02:37:20;5.30;99.90
43043;DHT22;28667;50.758;6.096;2023-12-22T02:39:47;5.30;99.90
43043;DHT22;28667;50.758;6.096;2023-12-22T02:42:13;5.30;99.90
43043;DHT22;28667;50.758;6.096;2023-12-22T02:44:39;5.40;99.90
43043;DHT22;28667;50.758;6.096;2023-12-22T02:47:05;5.50;99.90
43043;DHT22;28667;50.758;6.096;2023-12-22T02:49:30;5.70;99.90
43043;DHT22;28667;50.758;6.096;2023-12-22T02:51:56;5.70;99.90
43043;DHT22;28667;50.758;6.096;2023-12-22T02:54:22;5.80;99.90
43043;DHT22;28667;50.758;6.096;2023-12-22T02:56:47;5.80;99.90
43043;DHT22;28667;50.758;6.096;2023-12-22T02:59:14;5.90;99.90
43043;DHT22;28667;50.758;6.096;2023-12-22T03:01:39;6.10;99.90
43043;DHT22;28667;50.758;6.096;2023-12-22T03:04:05;6.10;99.90
43043;DHT22;28667;50.758;6.096;2023-12-22T03:06:31;6.10;99.90
43043;DHT22;28667;50.758;6.096;2023-12-22T03:08:57;6.00;99.90
43043;DHT22;28667;50.758;6.096;2023-12-22T03:11:22;6.00;99.90
43043;DHT22;28667;50.758;6.096;2023-12-22T03:13:48;5.90;99.90
43043;DHT22;28667;50.758;6.096;2023-12-22T03:16:14;5.80;99.90
43043;DHT22;28667;50.758;6.096;2023-12-22T03:18:39;5.70;99.90
43043;DHT22;28667;50.758;6.096;2023-12-22T03:21:05;5.70;99.90
43043;DHT22;28667;50.758;6.096;2023-12-22T03:23:31;5.60;99.90
43043;DHT22;28667;50.758;6.096;2023-12-22T03:25:57;5.60;99.90
43043;DHT22;28667;50.758;6.096;2023-12-22T03:28:22;5.50;99.90
43043;DHT22;28667;50.758;6.096;2023-12-22T03:30:48;5.50;99.90
43043;DHT22;28667;50.758;6.096;2023-12-22T03:33:14;5.50;99.90
43043;DHT22;28667;50.758;6.096;2023-12-22T03:35:39;5.40;99.90
43043;DHT22;28667;50.758;6.096;2023-12-22T03:38:05;5.40;99.90
43043;DHT22;28667;50.758;6.096;2023-12-22T03:40:31;5.40;99.90
43043;DHT22;28667;50.758;6.096;2023-12-22T03:42:56;5.50;99.90
43043;DHT22;28667;50.758;6.096;2023-12-22T03:45:22;5.60;99.90
43043;DHT22;28667;50.758;6.096;2023-12-22T03:47:48;5.80;99.90
43043;DHT22;28667;50.758;6.096;2023-12-22T03:50:13;5.90;99.90
43043;DHT22;28667;50.758;6.096;2023-12-22T03:52:39;6.00;99.90
43043;DHT22;28667;50.758;6.096;2023-12-22T03:55:05;6.10;99.90
43043;DHT22;28667;50.758;6.096;2023-12-22T03:57:31;6.20;99.90
43043;DHT22;28667;50.758;6.096;2023-12-22T03:59:56;6.30;99.90
43043;DHT22;28667;50.758;6.096;2023-12-22T04:02:22;6.30;99.90
43043;DHT22;28667;50.758;6.096;2023-12-22T04:04:48;6.30;99.90
43043;DHT22;28667;50.758;6.096;2023-12-22T04:07:13;6.30;99.90
43043;DHT22;28667;50.758;6.096;2023-12-22T04:09:39;6.30;99.90
43043;DHT22;28667;50.758;6.096;2023-12-22T04:12:05;6.40;99.90
43043;DHT22;28667;50.758;6.096;2023-12-22T04:14:31;6.40;99.90
43043;DHT22;28667;50.758;6.096;2023-12-22T04:16:56;6.40;99.90
43043;DHT22;28667;50.758;6.096;2023-12-22T04:19:22;6.40;99.90
43043;DHT22;28667;50.758;6.096;2023-12-22T04:21:48;6.40;99.90
43043;DHT22;28667;50.758;6.096;2023-12-22T04:24:14;6.40;99.90
43043;DHT22;28667;50.758;6.096;2023-12-22T04:26:40;6.40;99.90
43043;DHT22;28667;50.758;6.096;2023-12-22T04:29:05;6.40;99.90
43043;DHT22;28667;50.758;6.096;2023-12-22T04:31:31;6.40;99.90
43043;DHT22;28667;50.758;6.096;2023-12-22T04:33:57;6.50;99.90
43043;DHT22;28667;50.758;6.096;2023-12-22T04:36:23;6.50;99.90
43043;DHT22;28667;50.758;6.096;2023-12-22T04:38:48;6.50;99.90
43043;DHT22;28667;50.758;6.096;2023-12-22T04:41:14;6.50;99.90
43043;DHT22;28667;50.758;6.096;2023-12-22T04:43:40;6.50;99.90
43043;DHT22;28667;50.758;6.096;2023-12-22T04:46:05;6.60;99.90
43043;DHT22;28667;50.758;6.096;2023-12-22T04:48:31;6.70;99.90
43043;DHT22;28667;50.758;6.096;2023-12-22T04:50:58;6.70;99.90
43043;DHT22;28667;50.758;6.096;2023-12-22T04:53:24;6.70;99.90
43043;DHT22;28667;50.758;6.096;2023-12-22T04:55:50;6.70;99.90
43043;DHT22;28667;50.758;6.096;2023-12-22T04:58:15;6.70;99.90
43043;DHT22;28667;50.758;6.096;2023-12-22T05:00:41;6.70;99.90
43043;DHT22;28667;50.758;6.096;2023-12-22T05:03:07;6.70;99.90
43043;DHT22;28667;50.758;6.096;2023-12-22T05:05:33;6.60;99.90
43043;DHT22;28667;50.758;6.096;2023-12-22T05:07:59;6.60;99.90
43043;DHT22;28667;50.758;6.096;2023-12-22T05:10:24;6.60;99.90
43043;DHT22;28667;50.758;6.096;2023-12-22T05:12:50;6.60;99.90
43043;DHT22;28667;50.758;6.096;2023-12-22T05:15:16;6.60;99.90
43043;DHT22;28667;50.758;6.096;2023-12-22T05:17:41;6.60;99.90
43043;DHT22;28667;50.758;6.096;2023-12-22T05:20:07;6.70;99.90
43043;DHT22;28667;50.758;6.096;2023-12-22T05:22:36;6.60;99.90
43043;DHT22;28667;50.758;6.096;2023-12-22T05:25:02;6.60;99.90
43043;DHT22;28667;50.758;6.096;2023-12-22T05:27:28;6.70;99.90
43043;DHT22;28667;50.758;6.096;2023-12-22T05:29:54;6.70;99.90
43043;DHT22;28667;50.758;6.096;2023-12-22T05:32:19;6.60;99.90
43043;DHT22;28667;50.758;6.096;2023-12-22T05:34:45;6.60;99.90
43043;DHT22;28667;50.758;6.096;2023-12-22T05:37:11;6.50;99.90
43043;DHT22;28667;50.758;6.096;2023-12-22T05:39:37;6.50;99.90
43043;DHT22;28667;50.758;6.096;2023-12-22T05:42:03;6.40;99.90
43043;DHT22;28667;50.758;6.096;2023-12-22T05:44:28;6.30;99.90
43043;DHT22;28667;50.758;6.096;2023-12-22T05:46:59;6.30;99.90
43043;DHT22;28667;50.758;6.096;2023-12-22T05:49:24;6.30;99.90
43043;DHT22;28667;50.758;6.096;2023-12-22T05:51:51;6.30;99.90
43043;DHT22;28667;50.758;6.096;2023-12-22T05:54:16;6.30;99.90
43043;DHT22;28667;50.758;6.096;2023-12-22T05:56:45;6.40;99.90
43043;DHT22;28667;50.758;6.096;2023-12-22T05:59:10;6.30;99.90
43043;DHT22;28667;50.758;6.096;2023-12-22T06:01:36;6.40;99.90
43043;DHT22;28667;50.758;6.096;2023-12-22T06:04:02;6.50;99.90
43043;DHT22;28667;50.758;6.096;2023-12-22T06:06:28;6.50;99.90
43043;DHT22;28667;50.758;6.096;2023-12-22T06:08:55;6.50;99.90
43043;DHT22;28667;50.758;6.096;2023-12-22T06:11:21;6.60;99.90
43043;DHT22;28667;50.758;6.096;2023-12-22T06:13:47;6.60;99.90
43043;DHT22;28667;50.758;6.096;2023-12-22T06:16:14;6.60;99.90
43043;DHT22;28667;50.758;6.096;2023-12-22T06:18:41;6.60;99.90
43043;DHT22;28667;50.758;6.096;2023-12-22T06:21:08;6.60;99.90
43043;DHT22;28667;50.758;6.096;2023-12-22T06:23:34;6.60;99.90
43043;DHT22;28667;50.758;6.096;2023-12-22T06:26:00;6.60;99.90
43043;DHT22;28667;50.758;6.096;2023-12-22T06:28:27;6.60;99.90
43043;DHT22;28667;50.758;6.096;2023-12-22T06:30:53;6.60;99.90
43043;DHT22;28667;50.758;6.096;2023-12-22T06:33:19;6.70;99.90
43043;DHT22;28667;50.758;6.096;2023-12-22T06:35:45;6.70;99.90
43043;DHT22;28667;50.758;6.096;2023-12-22T06:38:11;6.70;99.90
43043;DHT22;28667;50.758;6.096;2023-12-22T06:40:37;6.70;99.90
43043;DHT22;28667;50.758;6.096;2023-12-22T06:43:04;6.80;99.90
43043;DHT22;28667;50.758;6.096;2023-12-22T06:45:30;6.70;99.90
43043;DHT22;28667;50.758;6.096;2023-12-22T06:47:56;6.60;99.90
43043;DHT22;28667;50.758;6.096;2023-12-22T06:50:21;6.60;99.90
43043;DHT22;28667;50.758;6.096;2023-12-22T06:52:47;6.70;99.90
43043;DHT22;28667;50.758;6.096;2023-12-22T06:55:14;6.70;99.90
43043;DHT22;28667;50.758;6.096;2023-12-22T06:57:40;6.70;99.90
43043;DHT22;28667;50.758;6.096;2023-12-22T07:00:06;6.70;99.90
43043;DHT22;28667;50.758;6.096;2023-12-22T07:02:32;6.70;99.90
43043;DHT22;28667;50.758;6.096;2023-12-22T07:07:52;6.60;99.90
43043;DHT22;28667;50.758;6.096;2023-12-22T07:10:17;6.70;99.90
43043;DHT22;28667;50.758;6.096;2023-12-22T07:12:43;6.60;99.90
43043;DHT22;28667;50.758;6.096;2023-12-22T07:15:09;6.70;99.90
43043;DHT22;28667;50.758;6.096;2023-12-22T07:17:35;6.60;99.90
43043;DHT22;28667;50.758;6.096;2023-12-22T07:20:00;6.60;99.90
43043;DHT22;28667;50.758;6.096;2023-12-22T07:22:29;6.60;99.90
43043;DHT22;28667;50.758;6.096;2023-12-22T07:24:55;6.60;99.90
43043;DHT22;28667;50.758;6.096;2023-12-22T07:27:21;6.60;99.90
43043;DHT22;28667;50.758;6.096;2023-12-22T07:29:47;6.60;99.90
43043;DHT22;28667;50.758;6.096;2023-12-22T07:32:13;6.50;99.90
43043;DHT22;28667;50.758;6.096;2023-12-22T07:34:38;6.60;99.90
43043;DHT22;28667;50.758;6.096;2023-12-22T07:37:07;6.60;99.90
43043;DHT22;28667;50.758;6.096;2023-12-22T07:39:33;6.60;99.90
43043;DHT22;28667;50.758;6.096;2023-12-22T07:41:59;6.70;99.90
43043;DHT22;28667;50.758;6.096;2023-12-22T07:44:25;6.70;99.90
43043;DHT22;28667;50.758;6.096;2023-12-22T07:46:58;6.70;99.90
43043;DHT22;28667;50.758;6.096;2023-12-22T07:49:25;6.70;99.90
43043;DHT22;28667;50.758;6.096;2023-12-22T07:51:52;6.60;99.90
43043;DHT22;28667;50.758;6.096;2023-12-22T07:54:20;6.60;99.90
43043;DHT22;28667;50.758;6.096;2023-12-22T07:56:46;6.60;99.90
43043;DHT22;28667;50.758;6.096;2023-12-22T07:59:12;6.60;99.90
43043;DHT22;28667;50.758;6.096;2023-12-22T08:01:38;6.70;99.90
43043;DHT22;28667;50.758;6.096;2023-12-22T08:04:03;6.70;99.90
43043;DHT22;28667;50.758;6.096;2023-12-22T08:06:30;6.70;99.90
43043;DHT22;28667;50.758;6.096;2023-12-22T08:08:56;6.70;99.90
43043;DHT22;28667;50.758;6.096;2023-12-22T08:13:51;6.80;99.90
43043;DHT22;28667;50.758;6.096;2023-12-22T08:16:17;6.80;99.90
43043;DHT22;28667;50.758;6.096;2023-12-22T08:18:43;6.80;99.90
43043;DHT22;28667;50.758;6.096;2023-12-22T08:21:11;6.80;99.90
43043;DHT22;28667;50.758;6.096;2023-12-22T08:23:37;6.90;99.90
43043;DHT22;28667;50.758;6.096;2023-12-22T08:26:02;6.90;99.90
43043;DHT22;28667;50.758;6.096;2023-12-22T08:28:28;6.90;99.90
43043;DHT22;28667;50.758;6.096;2023-12-22T08:30:54;7.00;99.90
43043;DHT22;28667;50.758;6.096;2023-12-22T08:33:19;7.00;99.90
43043;DHT22;28667;50.758;6.096;2023-12-22T08:35:45;7.00;99.90
43043;DHT22;28667;50.758;6.096;2023-12-22T08:38:11;7.00;99.90
43043;DHT22;28667;50.758;6.096;2023-12-22T08:40:38;7.10;99.90
43043;DHT22;28667;50.758;6.096;2023-12-22T08:43:04;7.10;99.90
43043;DHT22;28667;50.758;6.096;2023-12-22T08:45:32;7.10;99.90
43043;DHT22;28667;50.758;6.096;2023-12-22T08:47:57;7.20;99.90
43043;DHT22;28667;50.758;6.096;2023-12-22T08:50:23;7.10;99.90
43043;DHT22;28667;50.758;6.096;2023-12-22T08:52:49;7.10;99.90
43043;DHT22;28667;50.758;6.096;2023-12-22T08:55:15;7.10;99.90
43043;DHT22;28667;50.758;6.096;2023-12-22T08:57:41;7.10;99.90
43043;DHT22;28667;50.758;6.096;2023-12-22T09:00:07;7.20;99.90
43043;DHT22;28667;50.758;6.096;2023-12-22T09:02:33;7.10;99.90
43043;DHT22;28667;50.758;6.096;2023-12-22T09:04:59;7.10;99.90
43043;DHT22;28667;50.758;6.096;2023-12-22T09:07:25;7.10;99.90
43043;DHT22;28667;50.758;6.096;2023-12-22T09:09:50;7.10;99.90
43043;DHT22;28667;50.758;6.096;2023-12-22T09:12:16;7.10;99.90
43043;DHT22;28667;50.758;6.096;2023-12-22T09:14:42;7.10;99.90
43043;DHT22;28667;50.758;6.096;2023-12-22T09:17:07;7.10;99.90
43043;DHT22;28667;50.758;6.096;2023-12-22T09:19:33;7.10;99.90
43043;DHT22;28667;50.758;6.096;2023-12-22T09:21:59;7.10;99.90
43043;DHT22;28667;50.758;6.096;2023-12-22T09:24:25;7.10;99.90
43043;DHT22;28667;50.758;6.096;2023-12-22T09:26:51;7.10;99.90
43043;DHT22;28667;50.758;6.096;2023-12-22T09:29:17;7.10;99.90
43043;DHT22;28667;50.758;6.096;2023-12-22T09:31:43;7.10;99.90
43043;DHT22;28667;50.758;6.096;2023-12-22T09:34:09;7.20;99.90
43043;DHT22;28667;50.758;6.096;2023-12-22T09:36:34;7.20;99.90
43043;DHT22;28667;50.758;6.096;2023-12-22T09:39:00;7.20;99.90
43043;DHT22;28667;50.758;6.096;2023-12-22T09:41:26;7.20;99.90
43043;DHT22;28667;50.758;6.096;2023-12-22T09:43:52;7.20;99.90
43043;DHT22;28667;50.758;6.096;2023-12-22T09:46:21;7.30;99.90
43043;DHT22;28667;50.758;6.096;2023-12-22T09:48:49;7.30;99.90
43043;DHT22;28667;50.758;6.096;2023-12-22T09:51:16;7.30;99.90
43043;DHT22;28667;50.758;6.096;2023-12-22T09:53:44;7.40;99.90
43043;DHT22;28667;50.758;6.096;2023-12-22T09:56:11;7.40;99.90
43043;DHT22;28667;50.758;6.096;2023-12-22T09:58:37;7.40;99.90
43043;DHT22;28667;50.758;6.096;2023-12-22T10:01:05;7.40;99.90
43043;DHT22;28667;50.758;6.096;2023-12-22T10:03:33;7.40;99.90
43043;DHT22;28667;50.758;6.096;2023-12-22T10:06:00;7.40;99.90
43043;DHT22;28667;50.758;6.096;2023-12-22T10:08:27;7.40;99.90
43043;DHT22;28667;50.758;6.096;2023-12-22T10:10:54;7.40;99.90
43043;DHT22;28667;50.758;6.096;2023-12-22T10:13:21;7.50;99.90
43043;DHT22;28667;50.758;6.096;2023-12-22T10:15:46;7.50;99.90
43043;DHT22;28667;50.758;6.096;2023-12-22T10:18:12;7.50;99.90
43043;DHT22;28667;50.758;6.096;2023-12-22T10:20:39;7.50;99.90
43043;DHT22;28667;50.758;6.096;2023-12-22T10:23:05;7.60;99.90
43043;DHT22;28667;50.758;6.096;2023-12-22T10:25:31;7.60;99.90
43043;DHT22;28667;50.758;6.096;2023-12-22T10:27:58;7.70;99.90
43043;DHT22;28667;50.758;6.096;2023-12-22T10:30:24;7.80;99.90
43043;DHT22;28667;50.758;6.096;2023-12-22T10:32:50;7.90;99.90
43043;DHT22;28667;50.758;6.096;2023-12-22T10:35:17;7.90;99.90
43043;DHT22;28667;50.758;6.096;2023-12-22T10:37:45;7.90;99.90
43043;DHT22;28667;50.758;6.096;2023-12-22T10:40:11;8.10;99.90
43043;DHT22;28667;50.758;6.096;2023-12-22T10:42:37;8.10;99.90
43043;DHT22;28667;50.758;6.096;2023-12-22T10:45:05;8.20;99.90
43043;DHT22;28667;50.758;6.096;2023-12-22T10:47:32;8.20;99.90
43043;DHT22;28667;50.758;6.096;2023-12-22T10:50:02;8.30;99.90
43043;DHT22;28667;50.758;6.096;2023-12-22T10:52:29;8.30;99.90
43043;DHT22;28667;50.758;6.096;2023-12-22T10:54:57;8.30;99.90
43043;DHT22;28667;50.758;6.096;2023-12-22T10:57:23;8.30;99.90
43043;DHT22;28667;50.758;6.096;2023-12-22T10:59:49;8.30;99.90
43043;DHT22;28667;50.758;6.096;2023-12-22T11:02:18;8.30;99.90
43043;DHT22;28667;50.758;6.096;2023-12-22T11:05:04;8.30;99.90
43043;DHT22;28667;50.758;6.096;2023-12-22T11:07:34;8.30;99.90
43043;DHT22;28667;50.758;6.096;2023-12-22T11:10:03;8.30;99.90
43043;DHT22;28667;50.758;6.096;2023-12-22T11:12:33;8.40;99.90
43043;DHT22;28667;50.758;6.096;2023-12-22T11:15:02;8.40;99.90
43043;DHT22;28667;50.758;6.096;2023-12-22T11:17:28;8.40;99.90
43043;DHT22;28667;50.758;6.096;2023-12-22T11:19:56;8.50;99.90
43043;DHT22;28667;50.758;6.096;2023-12-22T11:22:22;8.40;99.90
43043;DHT22;28667;50.758;6.096;2023-12-22T11:24:49;8.40;99.90
43043;DHT22;28667;50.758;6.096;2023-12-22T11:27:18;8.50;99.90
43043;DHT22;28667;50.758;6.096;2023-12-22T11:29:47;8.50;99.90
43043;DHT22;28667;50.758;6.096;2023-12-22T11:32:15;8.50;99.90
43043;DHT22;28667;50.758;6.096;2023-12-22T11:34:43;8.60;99.90
43043;DHT22;28667;50.758;6.096;2023-12-22T11:37:11;8.60;99.90
43043;DHT22;28667;50.758;6.096;2023-12-22T11:39:38;8.60;99.90
43043;DHT22;28667;50.758;6.096;2023-12-22T11:42:10;8.70;99.90
43043;DHT22;28667;50.758;6.096;2023-12-22T11:44:37;8.70;99.90
43043;DHT22;28667;50.758;6.096;2023-12-22T11:47:06;8.70;99.90
43043;DHT22;28667;50.758;6.096;2023-12-22T11:49:33;8.80;99.90
43043;DHT22;28667;50.758;6.096;2023-12-22T11:52:12;8.80;99.90
43043;DHT22;28667;50.758;6.096;2023-12-22T11:54:49;8.80;99.90
43043;DHT22;28667;50.758;6.096;2023-12-22T12:00:10;8.90;99.90
43043;DHT22;28667;50.758;6.096;2023-12-22T12:02:57;8.90;99.90
43043;DHT22;28667;50.758;6.096;2023-12-22T12:05:23;8.90;99.90
43043;DHT22;28667;50.758;6.096;2023-12-22T12:07:48;8.80;99.90
43043;DHT22;28667;50.758;6.096;2023-12-22T12:13:09;8.80;99.90
43043;DHT22;28667;50.758;6.096;2023-12-22T12:15:36;8.80;99.90
43043;DHT22;28667;50.758;6.096;2023-12-22T12:18:03;8.80;99.90
43043;DHT22;28667;50.758;6.096;2023-12-22T12:20:29;8.80;99.90
43043;DHT22;28667;50.758;6.096;2023-12-22T12:22:55;8.80;99.90
43043;DHT22;28667;50.758;6.096;2023-12-22T12:25:28;8.70;99.90
43043;DHT22;28667;50.758;6.096;2023-12-22T12:28:04;8.80;99.90
43043;DHT22;28667;50.758;6.096;2023-12-22T12:30:35;8.70;99.90
43043;DHT22;28667;50.758;6.096;2023-12-22T12:33:09;8.70;99.90
43043;DHT22;28667;50.758;6.096;2023-12-22T12:35:39;8.70;99.90
43043;DHT22;28667;50.758;6.096;2023-12-22T12:38:05;8.60;99.90
43043;DHT22;28667;50.758;6.096;2023-12-22T12:40:31;8.70;99.90
43043;DHT22;28667;50.758;6.096;2023-12-22T12:43:01;8.70;99.90
43043;DHT22;28667;50.758;6.096;2023-12-22T12:45:28;8.70;99.90
43043;DHT22;28667;50.758;6.096;2023-12-22T12:48:01;8.60;99.90
43043;DHT22;28667;50.758;6.096;2023-12-22T12:50:28;8.60;99.90
43043;DHT22;28667;50.758;6.096;2023-12-22T12:52:54;8.60;99.90
43043;DHT22;28667;50.758;6.096;2023-12-22T12:55:22;8.70;99.90
43043;DHT22;28667;50.758;6.096;2023-12-22T12:57:49;8.70;99.90
43043;DHT22;28667;50.758;6.096;2023-12-22T13:00:26;8.70;99.90
43043;DHT22;28667;50.758;6.096;2023-12-22T13:03:02;8.70;99.90
43043;DHT22;28667;50.758;6.096;2023-12-22T13:05:28;8.70;99.90
43043;DHT22;28667;50.758;6.096;2023-12-22T13:08:09;8.70;99.90
43043;DHT22;28667;50.758;6.096;2023-12-22T13:10:35;8.70;99.90
43043;DHT22;28667;50.758;6.096;2023-12-22T13:13:01;8.70;99.90
43043;DHT22;28667;50.758;6.096;2023-12-22T13:15:29;8.70;99.90
43043;DHT22;28667;50.758;6.096;2023-12-22T13:17:55;8.70;99.90
43043;DHT22;28667;50.758;6.096;2023-12-22T13:20:21;8.70;99.90
43043;DHT22;28667;50.758;6.096;2023-12-22T13:22:47;8.70;99.90
43043;DHT22;28667;50.758;6.096;2023-12-22T13:25:13;8.70;99.90
43043;DHT22;28667;50.758;6.096;2023-12-22T13:27:48;8.70;99.90
43043;DHT22;28667;50.758;6.096;2023-12-22T13:30:15;8.70;99.90
43043;DHT22;28667;50.758;6.096;2023-12-22T13:32:56;8.70;99.90
43043;DHT22;28667;50.758;6.096;2023-12-22T13:35:25;8.70;99.90
43043;DHT22;28667;50.758;6.096;2023-12-22T13:37:53;8.70;99.90
43043;DHT22;28667;50.758;6.096;2023-12-22T13:40:19;8.70;99.90
43043;DHT22;28667;50.758;6.096;2023-12-22T13:42:56;8.70;99.90
43043;DHT22;28667;50.758;6.096;2023-12-22T13:45:32;8.60;99.90
43043;DHT22;28667;50.758;6.096;2023-12-22T13:47:59;8.60;99.90
43043;DHT22;28667;50.758;6.096;2023-12-22T13:50:25;8.60;99.90
43043;DHT22;28667;50.758;6.096;2023-12-22T13:52:51;8.60;99.90
43043;DHT22;28667;50.758;6.096;2023-12-22T13:55:20;8.60;99.90
43043;DHT22;28667;50.758;6.096;2023-12-22T13:57:48;8.60;99.90
43043;DHT22;28667;50.758;6.096;2023-12-22T14:02:46;8.60;99.90
43043;DHT22;28667;50.758;6.096;2023-12-22T14:05:12;8.60;99.90
43043;DHT22;28667;50.758;6.096;2023-12-22T14:07:37;8.60;99.90
43043;DHT22;28667;50.758;6.096;2023-12-22T14:10:07;8.60;99.90
43043;DHT22;28667;50.758;6.096;2023-12-22T14:12:33;8.60;99.90
43043;DHT22;28667;50.758;6.096;2023-12-22T14:14:59;8.60;99.90
43043;DHT22;28667;50.758;6.096;2023-12-22T14:20:04;8.60;99.90
43043;DHT22;28667;50.758;6.096;2023-12-22T14:22:36;8.60;99.90
43043;DHT22;28667;50.758;6.096;2023-12-22T14:25:03;8.60;99.90
43043;DHT22;28667;50.758;6.096;2023-12-22T14:27:29;8.50;99.90
43043;DHT22;28667;50.758;6.096;2023-12-22T14:29:54;8.50;99.90
43043;DHT22;28667;50.758;6.096;2023-12-22T14:32:20;8.50;99.90
43043;DHT22;28667;50.758;6.096;2023-12-22T14:34:46;8.40;99.90
43043;DHT22;28667;50.758;6.096;2023-12-22T14:37:12;8.40;99.90
43043;DHT22;28667;50.758;6.096;2023-12-22T14:39:39;8.40;99.90
43043;DHT22;28667;50.758;6.096;2023-12-22T14:42:05;8.40;99.90
43043;DHT22;28667;50.758;6.096;2023-12-22T14:44:31;8.40;99.90
43043;DHT22;28667;50.758;6.096;2023-12-22T14:46:56;8.40;99.90
43043;DHT22;28667;50.758;6.096;2023-12-22T14:49:22;8.40;99.90
43043;DHT22;28667;50.758;6.096;2023-12-22T14:51:48;8.30;99.90
43043;DHT22;28667;50.758;6.096;2023-12-22T14:54:20;8.30;99.90
43043;DHT22;28667;50.758;6.096;2023-12-22T14:56:48;8.30;99.90
43043;DHT22;28667;50.758;6.096;2023-12-22T14:59:15;8.30;99.90
43043;DHT22;28667;50.758;6.096;2023-12-22T15:01:40;8.30;99.90
43043;DHT22;28667;50.758;6.096;2023-12-22T15:04:07;8.30;99.90
43043;DHT22;28667;50.758;6.096;2023-12-22T15:06:37;8.20;99.90
43043;DHT22;28667;50.758;6.096;2023-12-22T15:09:03;8.30;99.90
43043;DHT22;28667;50.758;6.096;2023-12-22T15:11:29;8.30;99.90
43043;DHT22;28667;50.758;6.096;2023-12-22T15:13:54;8.20;99.90
43043;DHT22;28667;50.758;6.096;2023-12-22T15:16:20;8.20;99.90
43043;DHT22;28667;50.758;6.096;2023-12-22T15:18:46;8.20;99.90
43043;DHT22;28667;50.758;6.096;2023-12-22T15:21:22;8.20;99.90
43043;DHT22;28667;50.758;6.096;2023-12-22T15:23:48;8.20;99.90
43043;DHT22;28667;50.758;6.096;2023-12-22T15:26:21;8.30;99.90
43043;DHT22;28667;50.758;6.096;2023-12-22T15:28:47;8.30;99.90
43043;DHT22;28667;50.758;6.096;2023-12-22T15:31:13;8.30;99.90
43043;DHT22;28667;50.758;6.096;2023-12-22T15:33:38;8.20;99.90
43043;DHT22;28667;50.758;6.096;2023-12-22T15:36:04;8.30;99.90
43043;DHT22;28667;50.758;6.096;2023-12-22T15:38:30;8.30;99.90
43043;DHT22;28667;50.758;6.096;2023-12-22T15:40:59;8.30;99.90
43043;DHT22;28667;50.758;6.096;2023-12-22T15:43:26;8.30;99.90
43043;DHT22;28667;50.758;6.096;2023-12-22T15:45:52;8.30;99.90
43043;DHT22;28667;50.758;6.096;2023-12-22T15:48:17;8.30;99.90
43043;DHT22;28667;50.758;6.096;2023-12-22T15:50:44;8.30;99.90
43043;DHT22;28667;50.758;6.096;2023-12-22T15:53:11;8.30;99.90
43043;DHT22;28667;50.758;6.096;2023-12-22T15:55:37;8.30;99.90
43043;DHT22;28667;50.758;6.096;2023-12-22T15:58:03;8.30;99.90
43043;DHT22;28667;50.758;6.096;2023-12-22T16:00:29;8.20;99.90